Time;durP1;ratioP1;P1;durP2;ratioP2;P2;SDS_P1;SDS_P2;PMS_P1;PMS_P2;Temp;Humidity;BMP_temperature;BMP_pressure;BME280_temperature;BME280_humidity;BME280_pressure;Samples;Min_cycle;Max_cycle;Signal;HPM_P1;HPM_P2
2022/03/06 00:01:16;;;;;;;7.80;5.50;;;;;;;;;;4508717;28;20036;-60
2022/03/06 00:03:27;;;;;;;7.30;5.30;;;;;;;;;;4507867;28;20033;-61
2022/03/06 00:05:37;;;;;;;7.97;5.77;;;;;;;;;;4492439;28;20026;-60
2022/03/06 00:07:48;;;;;;;8.13;5.60;;;;;;;;;;4490359;28;20656;-61
2022/03/06 00:09:58;;;;;;;7.17;5.40;;;;;;;;;;4523220;28;20061;-61
2022/03/06 00:12:09;;;;;;;7.53;5.37;;;;;;;;;;4499670;28;20482;-61
2022/03/06 00:14:20;;;;;;;7.00;5.33;;;;;;;;;;4509958;28;20037;-60
2022/03/06 00:16:30;;;;;;;7.87;5.57;;;;;;;;;;4508701;28;20017;-61
2022/03/06 00:18:40;;;;;;;7.93;5.60;;;;;;;;;;4506237;28;38627;-61
2022/03/06 00:20:53;;;;;;;7.40;5.70;;;;;;;;;;4490660;28;20907;-61
2022/03/06 00:23:03;;;;;;;7.47;5.38;;;;;;;;;;4507769;28;20026;-61
2022/03/06 00:25:14;;;;;;;7.93;5.90;;;;;;;;;;4508474;28;20030;-61
2022/03/06 00:27:24;;;;;;;7.23;5.20;;;;;;;;;;4491778;28;20036;-61
2022/03/06 00:29:35;;;;;;;7.57;5.40;;;;;;;;;;4506224;28;20041;-60
2022/03/06 00:31:45;;;;;;;8.00;5.70;;;;;;;;;;4509214;28;20108;-61
2022/03/06 00:33:56;;;;;;;9.17;5.93;;;;;;;;;;4508482;28;20025;-60
2022/03/06 00:36:06;;;;;;;7.87;5.27;;;;;;;;;;4507686;28;42194;-61
2022/03/06 00:38:17;;;;;;;7.60;5.50;;;;;;;;;;4492307;28;20046;-61
2022/03/06 00:40:27;;;;;;;8.03;5.47;;;;;;;;;;4506633;28;36176;-61
2022/03/06 00:42:38;;;;;;;7.13;5.50;;;;;;;;;;4507602;28;20037;-61
2022/03/06 00:44:48;;;;;;;7.33;5.13;;;;;;;;;;4489652;28;20025;-61
2022/03/06 00:46:58;;;;;;;7.20;5.23;;;;;;;;;;4509475;28;20022;-61
2022/03/06 00:49:09;;;;;;;7.70;5.60;;;;;;;;;;4488681;28;20023;-61
2022/03/06 00:51:19;;;;;;;8.40;5.60;;;;;;;;;;4506475;28;20033;-61
2022/03/06 00:53:30;;;;;;;6.90;5.30;;;;;;;;;;4506632;28;20410;-62
2022/03/06 00:55:40;;;;;;;7.03;5.30;;;;;;;;;;4509076;28;20718;-63
2022/03/06 00:57:51;;;;;;;7.97;5.70;;;;;;;;;;4506872;28;20409;-62
2022/03/06 01:00:04;;;;;;;8.17;5.63;;;;;;;;;;4507220;28;28199;-62
2022/03/06 01:02:14;;;;;;;7.85;5.60;;;;;;;;;;4522609;28;20028;-61
2022/03/06 01:04:27;;;;;;;7.97;5.32;;;;;;;;;;4506000;28;20105;-62
2022/03/06 01:06:37;;;;;;;7.23;5.47;;;;;;;;;;4488698;28;20113;-62
2022/03/06 01:08:48;;;;;;;6.97;5.47;;;;;;;;;;4482307;28;20027;-62
2022/03/06 01:10:58;;;;;;;7.17;5.10;;;;;;;;;;4507820;28;20022;-61
2022/03/06 01:13:09;;;;;;;7.90;5.80;;;;;;;;;;4507119;28;20029;-62
2022/03/06 01:15:20;;;;;;;8.45;5.85;;;;;;;;;;4489194;28;20696;-62
2022/03/06 01:17:31;;;;;;;7.35;5.40;;;;;;;;;;4506189;28;20436;-61
2022/03/06 01:19:41;;;;;;;6.63;4.87;;;;;;;;;;4509373;28;26117;-62
2022/03/06 01:21:52;;;;;;;8.43;5.37;;;;;;;;;;4507343;28;20026;-62
2022/03/06 01:24:03;;;;;;;7.57;5.53;;;;;;;;;;4506121;28;20033;-63
2022/03/06 01:26:13;;;;;;;7.27;5.33;;;;;;;;;;4506426;28;20030;-62
2022/03/06 01:28:24;;;;;;;6.83;5.30;;;;;;;;;;4506728;28;20030;-62
2022/03/06 01:30:34;;;;;;;7.37;5.20;;;;;;;;;;4506555;28;20117;-62
2022/03/06 01:32:45;;;;;;;6.90;5.17;;;;;;;;;;4508093;28;20065;-61
2022/03/06 01:34:55;;;;;;;7.33;5.30;;;;;;;;;;4507102;28;20033;-62
2022/03/06 01:37:05;;;;;;;7.17;5.23;;;;;;;;;;4507489;28;20053;-61
2022/03/06 01:39:16;;;;;;;6.77;5.30;;;;;;;;;;4505414;28;22620;-62
2022/03/06 01:41:26;;;;;;;8.50;5.10;;;;;;;;;;4493140;28;20439;-61
2022/03/06 01:43:37;;;;;;;6.63;5.00;;;;;;;;;;4510511;28;20033;-62
2022/03/06 01:45:47;;;;;;;7.67;5.53;;;;;;;;;;4525136;28;20029;-61
2022/03/06 01:47:58;;;;;;;8.70;5.40;;;;;;;;;;4509036;28;20033;-62
2022/03/06 01:50:16;;;;;;;6.83;5.00;;;;;;;;;;4509136;28;20026;-62
2022/03/06 01:52:26;;;;;;;7.90;5.30;;;;;;;;;;4493039;28;20022;-62
2022/03/06 01:54:37;;;;;;;7.30;5.40;;;;;;;;;;4510161;28;20550;-62
2022/03/06 01:56:47;;;;;;;6.53;4.77;;;;;;;;;;4509566;28;20967;-63
2022/03/06 01:58:58;;;;;;;8.47;5.87;;;;;;;;;;4509534;28;20049;-62
2022/03/06 02:01:09;;;;;;;7.35;5.43;;;;;;;;;;4491898;28;20018;-61
2022/03/06 02:03:19;;;;;;;7.60;5.37;;;;;;;;;;4508918;28;20026;-61
2022/03/06 02:05:30;;;;;;;7.43;5.23;;;;;;;;;;4492383;28;20027;-62
2022/03/06 02:07:41;;;;;;;7.10;5.33;;;;;;;;;;4509378;28;26360;-61
2022/03/06 02:09:51;;;;;;;7.90;4.90;;;;;;;;;;4524763;28;20028;-62
2022/03/06 02:14:31;;;;;;;6.97;5.32;;;;;;;;;;4525663;28;20029;-61
2022/03/06 02:16:42;;;;;;;7.57;5.67;;;;;;;;;;4510196;28;20466;-62
2022/03/06 02:18:52;;;;;;;6.67;5.20;;;;;;;;;;4508380;28;20056;-62
2022/03/06 02:21:11;;;;;;;7.40;5.37;;;;;;;;;;4493359;28;20022;-62
2022/03/06 02:23:21;;;;;;;7.55;5.38;;;;;;;;;;4509290;28;20030;-62
2022/03/06 02:25:33;;;;;;;7.47;5.43;;;;;;;;;;4492929;28;20030;-62
2022/03/06 02:27:44;;;;;;;6.85;5.03;;;;;;;;;;4493641;28;20029;-62
2022/03/06 02:29:54;;;;;;;7.37;5.47;;;;;;;;;;4493435;28;20037;-62
2022/03/06 02:32:05;;;;;;;6.40;5.03;;;;;;;;;;4509881;28;20026;-62
2022/03/06 02:34:15;;;;;;;7.67;5.37;;;;;;;;;;4510195;28;20030;-62
2022/03/06 02:36:26;;;;;;;6.80;5.07;;;;;;;;;;4509577;28;20033;-62
2022/03/06 02:38:36;;;;;;;6.57;5.13;;;;;;;;;;4495096;28;20038;-62
2022/03/06 02:40:47;;;;;;;7.80;5.50;;;;;;;;;;4509310;28;20132;-62
2022/03/06 02:42:57;;;;;;;6.40;4.93;;;;;;;;;;4508235;28;35561;-62
2022/03/06 02:45:17;;;;;;;7.40;5.23;;;;;;;;;;4508178;28;20068;-62
2022/03/06 02:47:28;;;;;;;7.07;5.40;;;;;;;;;;4509250;28;20029;-61
2022/03/06 02:49:38;;;;;;;7.80;5.67;;;;;;;;;;4509548;28;20438;-61
2022/03/06 02:51:49;;;;;;;7.57;5.20;;;;;;;;;;4508701;28;20030;-61
2022/03/06 02:53:59;;;;;;;6.65;5.25;;;;;;;;;;4509355;28;20033;-61
2022/03/06 02:56:10;;;;;;;7.43;5.33;;;;;;;;;;4508109;28;20026;-61
2022/03/06 02:58:21;;;;;;;7.00;5.17;;;;;;;;;;4524189;28;20077;-61
2022/03/06 03:00:32;;;;;;;6.80;5.07;;;;;;;;;;4507930;28;20650;-61
2022/03/06 03:02:42;;;;;;;7.57;5.63;;;;;;;;;;4492232;28;20026;-62
2022/03/06 03:04:53;;;;;;;7.60;5.43;;;;;;;;;;4517909;28;20112;-62
2022/03/06 03:07:03;;;;;;;7.30;5.30;;;;;;;;;;4494079;28;20534;-63
2022/03/06 03:09:14;;;;;;;7.20;5.63;;;;;;;;;;4507952;28;20049;-63
2022/03/06 03:11:24;;;;;;;7.10;5.07;;;;;;;;;;4507870;28;20483;-61
2022/03/06 03:13:34;;;;;;;7.93;5.80;;;;;;;;;;4510347;28;20013;-62
2022/03/06 03:15:45;;;;;;;8.50;5.93;;;;;;;;;;4494276;28;20058;-62
2022/03/06 03:17:56;;;;;;;7.17;5.40;;;;;;;;;;4508716;28;20145;-62
2022/03/06 03:20:07;;;;;;;6.93;4.90;;;;;;;;;;4510003;28;20431;-62
2022/03/06 03:22:17;;;;;;;7.45;4.90;;;;;;;;;;4507905;28;20034;-62
2022/03/06 03:24:29;;;;;;;7.67;5.33;;;;;;;;;;4509400;28;20065;-61
2022/03/06 03:26:39;;;;;;;6.90;4.95;;;;;;;;;;4498762;28;20033;-62
2022/03/06 03:28:49;;;;;;;6.57;5.10;;;;;;;;;;4493235;28;20633;-62
2022/03/06 03:31:00;;;;;;;6.53;5.27;;;;;;;;;;4509156;28;20018;-62
2022/03/06 03:33:10;;;;;;;7.23;5.07;;;;;;;;;;4500503;28;20617;-61
2022/03/06 03:35:21;;;;;;;6.73;4.90;;;;;;;;;;4509342;28;20057;-63
2022/03/06 03:37:31;;;;;;;6.10;4.73;;;;;;;;;;4493820;28;20014;-61
2022/03/06 03:39:42;;;;;;;6.50;5.20;;;;;;;;;;4500323;28;20178;-61
2022/03/06 03:41:52;;;;;;;6.37;4.93;;;;;;;;;;4507525;28;20372;-62
2022/03/06 03:44:03;;;;;;;6.70;5.10;;;;;;;;;;4496286;28;20076;-61
2022/03/06 03:46:14;;;;;;;7.50;5.13;;;;;;;;;;4509296;28;20029;-63
2022/03/06 03:48:28;;;;;;;7.93;4.80;;;;;;;;;;4507139;28;29769;-61
2022/03/06 03:50:39;;;;;;;7.57;5.18;;;;;;;;;;4507626;28;20053;-62
2022/03/06 03:52:49;;;;;;;6.23;4.80;;;;;;;;;;4506691;28;29907;-62
2022/03/06 03:54:59;;;;;;;7.10;5.20;;;;;;;;;;4508807;28;20322;-62
2022/03/06 03:57:10;;;;;;;7.63;5.17;;;;;;;;;;4494234;28;20026;-62
2022/03/06 03:59:20;;;;;;;7.13;4.73;;;;;;;;;;4507293;28;20104;-62
2022/03/06 04:01:31;;;;;;;7.03;4.70;;;;;;;;;;4506547;28;36485;-62
2022/03/06 04:03:41;;;;;;;6.47;4.93;;;;;;;;;;4508159;28;20041;-62
2022/03/06 04:05:52;;;;;;;7.60;5.00;;;;;;;;;;4491096;28;20038;-62
2022/03/06 04:08:02;;;;;;;7.07;5.10;;;;;;;;;;4491886;28;20557;-62
2022/03/06 04:10:13;;;;;;;7.57;5.07;;;;;;;;;;4508877;28;20038;-62
2022/03/06 04:12:23;;;;;;;6.23;4.50;;;;;;;;;;4507650;28;20346;-62
2022/03/06 04:14:34;;;;;;;7.13;4.87;;;;;;;;;;4508490;28;20033;-62
2022/03/06 04:16:44;;;;;;;6.73;5.10;;;;;;;;;;4489581;28;20022;-61
2022/03/06 04:18:55;;;;;;;7.43;5.07;;;;;;;;;;4507174;28;20060;-61
2022/03/06 04:21:05;;;;;;;6.37;4.60;;;;;;;;;;4494113;28;20395;-61
2022/03/06 04:23:16;;;;;;;7.23;5.03;;;;;;;;;;4507450;28;22940;-61
2022/03/06 04:25:26;;;;;;;6.90;4.40;;;;;;;;;;4492685;28;20477;-61
2022/03/06 04:27:37;;;;;;;7.18;5.15;;;;;;;;;;4508303;28;20030;-62
2022/03/06 04:29:47;;;;;;;6.30;4.57;;;;;;;;;;4506863;28;20535;-61
2022/03/06 04:31:58;;;;;;;6.37;4.63;;;;;;;;;;4506518;28;20080;-62
2022/03/06 04:34:08;;;;;;;6.60;5.07;;;;;;;;;;4507244;28;30294;-62
2022/03/06 04:36:19;;;;;;;7.03;4.73;;;;;;;;;;4508668;28;20087;-61
2022/03/06 04:38:30;;;;;;;6.27;4.73;;;;;;;;;;4492641;28;20058;-62
2022/03/06 04:40:40;;;;;;;6.55;4.65;;;;;;;;;;4507621;28;20022;-61
2022/03/06 04:42:51;;;;;;;5.83;4.43;;;;;;;;;;4508361;28;20026;-62
2022/03/06 04:45:01;;;;;;;7.83;4.90;;;;;;;;;;4523760;28;20055;-62
2022/03/06 04:47:11;;;;;;;7.63;5.10;;;;;;;;;;4507312;28;20169;-62
2022/03/06 04:49:22;;;;;;;7.03;4.90;;;;;;;;;;4506136;28;34861;-62
2022/03/06 04:51:32;;;;;;;6.43;4.67;;;;;;;;;;4507995;28;20078;-62
2022/03/06 04:53:43;;;;;;;5.63;4.10;;;;;;;;;;4506880;28;20552;-62
2022/03/06 04:55:53;;;;;;;6.03;4.53;;;;;;;;;;4508087;28;20018;-62
2022/03/06 04:58:04;;;;;;;6.57;4.67;;;;;;;;;;4506213;28;20048;-61
2022/03/06 05:00:15;;;;;;;7.03;4.90;;;;;;;;;;4495451;28;20037;-62
2022/03/06 05:02:25;;;;;;;;;;;;;;;;;;4506700;28;20031;-62
2022/03/06 05:04:36;;;;;;;8.27;5.40;;;;;;;;;;4506930;28;19913;-62
2022/03/06 05:06:46;;;;;;;6.37;4.83;;;;;;;;;;4508100;28;21246;-62
2022/03/06 05:08:57;;;;;;;7.87;5.67;;;;;;;;;;4506322;28;20526;-62
2022/03/06 05:11:07;;;;;;;7.33;5.33;;;;;;;;;;4506432;28;20030;-62
2022/03/06 05:13:18;;;;;;;7.27;5.00;;;;;;;;;;4506325;28;20113;-62
2022/03/06 05:15:28;;;;;;;6.63;4.60;;;;;;;;;;4508351;28;20041;-65
2022/03/06 05:17:42;;;;;;;7.03;5.00;;;;;;;;;;4491318;28;20033;-62
2022/03/06 05:19:53;;;;;;;5.88;4.57;;;;;;;;;;4499403;28;20076;-62
2022/03/06 05:22:03;;;;;;;6.53;5.07;;;;;;;;;;4497774;28;20586;-62
2022/03/06 05:24:14;;;;;;;6.67;4.90;;;;;;;;;;4522399;28;20052;-62
2022/03/06 05:26:24;;;;;;;7.27;5.23;;;;;;;;;;4507084;28;20030;-62
2022/03/06 05:28:35;;;;;;;6.53;4.83;;;;;;;;;;4506214;28;20045;-62
2022/03/06 05:30:45;;;;;;;7.23;4.90;;;;;;;;;;4491847;28;20109;-62
2022/03/06 05:32:55;;;;;;;7.57;5.27;;;;;;;;;;4507868;28;20494;-61
2022/03/06 05:35:06;;;;;;;6.40;4.93;;;;;;;;;;4507240;28;20285;-62
2022/03/06 05:37:17;;;;;;;6.40;4.70;;;;;;;;;;4507044;28;20785;-64
2022/03/06 05:39:27;;;;;;;7.50;5.13;;;;;;;;;;4493770;28;20355;-62
2022/03/06 05:41:38;;;;;;;6.60;5.00;;;;;;;;;;4491102;28;20537;-61
2022/03/06 05:43:48;;;;;;;6.50;4.80;;;;;;;;;;4507038;28;20037;-62
2022/03/06 05:46:00;;;;;;;5.83;4.77;;;;;;;;;;4507193;28;20062;-61
2022/03/06 05:48:11;;;;;;;8.50;5.78;;;;;;;;;;4521366;28;20025;-62
2022/03/06 05:50:21;;;;;;;7.53;5.53;;;;;;;;;;4507303;28;20065;-61
2022/03/06 05:52:32;;;;;;;8.20;5.67;;;;;;;;;;4505526;28;20022;-62
2022/03/06 05:54:43;;;;;;;8.73;5.80;;;;;;;;;;4523476;28;20061;-65
2022/03/06 05:56:53;;;;;;;7.37;5.40;;;;;;;;;;4507027;28;20036;-61
2022/03/06 05:59:04;;;;;;;7.30;5.10;;;;;;;;;;4506421;28;20134;-61
2022/03/06 06:01:16;;;;;;;6.63;5.13;;;;;;;;;;4522741;28;20430;-62
2022/03/06 06:03:27;;;;;;;7.20;5.45;;;;;;;;;;4507648;28;21261;-61
2022/03/06 06:05:38;;;;;;;8.53;5.77;;;;;;;;;;4506346;28;31387;-62
2022/03/06 06:07:49;;;;;;;7.63;5.37;;;;;;;;;;4507350;28;20034;-62
2022/03/06 06:09:59;;;;;;;7.10;5.38;;;;;;;;;;4506104;28;20034;-61
2022/03/06 06:12:10;;;;;;;7.57;5.50;;;;;;;;;;4507955;28;20206;-61
2022/03/06 06:14:20;;;;;;;7.57;5.57;;;;;;;;;;4506457;28;38353;-61
2022/03/06 06:16:31;;;;;;;7.07;5.40;;;;;;;;;;4505495;28;20597;-61
2022/03/06 06:18:41;;;;;;;7.37;5.30;;;;;;;;;;4520426;28;20676;-62
2022/03/06 06:20:53;;;;;;;7.47;5.43;;;;;;;;;;4520680;28;20604;-63
2022/03/06 06:23:04;;;;;;;7.28;5.32;;;;;;;;;;4490070;28;20024;-62
2022/03/06 06:25:15;;;;;;;7.82;5.47;;;;;;;;;;4505693;28;20088;-61
2022/03/06 06:27:26;;;;;;;7.40;5.40;;;;;;;;;;4490467;28;41082;-62
2022/03/06 06:29:37;;;;;;;6.40;5.05;;;;;;;;;;4506813;28;20139;-62
2022/03/06 06:31:47;;;;;;;9.67;6.47;;;;;;;;;;4498494;28;20036;-62
2022/03/06 06:33:58;;;;;;;7.17;5.60;;;;;;;;;;4498828;28;20026;-62
2022/03/06 06:36:08;;;;;;;7.70;5.57;;;;;;;;;;4509805;28;20085;-62
2022/03/06 06:38:20;;;;;;;7.10;5.60;;;;;;;;;;4507529;28;20046;-61
2022/03/06 06:40:31;;;;;;;10.80;7.85;;;;;;;;;;4509775;28;20024;-61
2022/03/06 06:42:42;;;;;;;9.48;7.18;;;;;;;;;;4507344;28;20124;-62
2022/03/06 06:44:54;;;;;;;12.27;9.83;;;;;;;;;;4493066;28;20727;-62
2022/03/06 06:47:05;;;;;;;12.38;10.60;;;;;;;;;;4480010;28;20031;-62
2022/03/06 06:49:15;;;;;;;11.37;9.13;;;;;;;;;;4509058;28;20421;-62
2022/03/06 06:51:27;;;;;;;8.27;6.13;;;;;;;;;;4506918;28;20072;-61
2022/03/06 06:53:37;;;;;;;7.65;5.63;;;;;;;;;;4490898;28;20046;-62
2022/03/06 06:55:48;;;;;;;7.40;5.13;;;;;;;;;;4509517;28;20038;-61
2022/03/06 06:57:58;;;;;;;7.73;5.47;;;;;;;;;;4507730;28;27755;-61
2022/03/06 07:00:09;;;;;;;9.77;7.73;;;;;;;;;;4508079;28;20033;-62
2022/03/06 07:02:19;;;;;;;11.87;9.60;;;;;;;;;;4507413;28;20045;-61
2022/03/06 07:04:30;;;;;;;11.93;9.80;;;;;;;;;;4508909;28;20406;-62
2022/03/06 07:06:40;;;;;;;9.17;6.97;;;;;;;;;;4523297;28;30700;-61
2022/03/06 07:08:51;;;;;;;7.67;5.67;;;;;;;;;;4497238;28;20555;-62
2022/03/06 07:11:01;;;;;;;7.33;5.70;;;;;;;;;;4494255;28;20111;-62
2022/03/06 07:13:12;;;;;;;7.20;5.60;;;;;;;;;;4493896;28;20462;-61
2022/03/06 07:15:28;;;;;;;7.93;5.60;;;;;;;;;;4507484;28;20030;-62
2022/03/06 07:17:38;;;;;;;8.18;5.63;;;;;;;;;;4497216;28;20045;-62
2022/03/06 07:19:48;;;;;;;6.67;5.30;;;;;;;;;;4507524;28;20054;-62
2022/03/06 07:21:59;;;;;;;7.60;5.33;;;;;;;;;;4508870;28;20022;-62
2022/03/06 07:24:09;;;;;;;6.63;4.97;;;;;;;;;;4500402;28;20548;-62
2022/03/06 07:26:20;;;;;;;7.03;5.57;;;;;;;;;;4507751;28;20067;-62
2022/03/06 07:28:30;;;;;;;8.03;5.93;;;;;;;;;;4506946;28;20022;-62
2022/03/06 07:30:44;;;;;;;7.00;5.23;;;;;;;;;;4509440;28;20053;-62
2022/03/06 07:32:54;;;;;;;7.15;5.53;;;;;;;;;;4507064;28;20569;-62
2022/03/06 07:35:05;;;;;;;8.90;5.67;;;;;;;;;;4508069;28;20033;-61
2022/03/06 07:37:15;;;;;;;8.00;6.20;;;;;;;;;;4508260;28;20057;-62
2022/03/06 07:39:26;;;;;;;7.03;5.40;;;;;;;;;;4508711;28;20049;-62
2022/03/06 07:41:36;;;;;;;7.90;5.33;;;;;;;;;;4507065;28;43352;-62
2022/03/06 07:43:47;;;;;;;7.00;5.13;;;;;;;;;;4508900;28;20025;-62
2022/03/06 07:45:57;;;;;;;8.20;5.60;;;;;;;;;;4508431;28;20029;-61
2022/03/06 07:48:08;;;;;;;7.97;5.77;;;;;;;;;;4508420;28;20036;-61
2022/03/06 07:50:18;;;;;;;8.67;6.03;;;;;;;;;;4507998;28;20030;-61
2022/03/06 07:52:29;;;;;;;6.13;4.93;;;;;;;;;;4479879;28;20467;-62
2022/03/06 07:54:39;;;;;;;7.90;5.23;;;;;;;;;;4507872;28;22884;-62
2022/03/06 07:56:50;;;;;;;6.73;4.90;;;;;;;;;;4506149;28;33647;-62
2022/03/06 07:59:00;;;;;;;6.40;5.10;;;;;;;;;;4507683;28;20040;-62
2022/03/06 08:01:10;;;;;;;7.63;5.10;;;;;;;;;;4509195;28;20033;-62
2022/03/06 08:03:21;;;;;;;6.37;4.80;;;;;;;;;;4509598;28;20104;-61
2022/03/06 08:05:31;;;;;;;6.73;4.63;;;;;;;;;;4507927;28;20409;-62
2022/03/06 08:07:42;;;;;;;6.37;5.00;;;;;;;;;;4507094;28;20030;-62
2022/03/06 08:09:52;;;;;;;5.97;4.70;;;;;;;;;;4507754;28;20483;-62
2022/03/06 08:12:03;;;;;;;6.93;4.67;;;;;;;;;;4506448;28;20022;-62
2022/03/06 08:14:14;;;;;;;6.72;4.78;;;;;;;;;;4492851;28;20109;-61
2022/03/06 08:16:24;;;;;;;7.03;5.20;;;;;;;;;;4507581;28;20049;-62
2022/03/06 08:18:35;;;;;;;7.57;5.47;;;;;;;;;;4492875;28;20553;-61
2022/03/06 08:20:46;;;;;;;8.27;5.80;;;;;;;;;;4507159;28;20033;-62
2022/03/06 08:22:56;;;;;;;7.40;5.53;;;;;;;;;;4508286;28;24782;-61
2022/03/06 08:25:07;;;;;;;7.57;5.83;;;;;;;;;;4507009;28;20127;-62
2022/03/06 08:27:18;;;;;;;8.35;6.00;;;;;;;;;;4493165;28;20120;-62
2022/03/06 08:29:29;;;;;;;7.97;5.70;;;;;;;;;;4507804;28;20437;-62
2022/03/06 08:31:39;;;;;;;7.73;5.63;;;;;;;;;;4507907;28;24674;-62
2022/03/06 08:33:50;;;;;;;8.53;6.20;;;;;;;;;;4489683;28;20061;-61
2022/03/06 08:36:01;;;;;;;8.43;6.15;;;;;;;;;;4508935;28;20076;-62
2022/03/06 08:38:11;;;;;;;7.03;5.20;;;;;;;;;;4523525;28;20878;-62
2022/03/06 08:40:23;;;;;;;6.63;4.90;;;;;;;;;;4506300;28;20696;-62
2022/03/06 08:42:33;;;;;;;7.82;5.50;;;;;;;;;;4507822;28;20024;-61
2022/03/06 08:44:43;;;;;;;7.33;4.53;;;;;;;;;;4491231;28;20033;-62
2022/03/06 08:46:54;;;;;;;7.43;5.10;;;;;;;;;;4507666;28;20466;-61
2022/03/06 08:49:05;;;;;;;7.73;5.30;;;;;;;;;;4506707;28;20034;-61
2022/03/06 08:51:15;;;;;;;7.37;5.10;;;;;;;;;;4507816;28;20061;-61
2022/03/06 08:53:26;;;;;;;7.53;5.10;;;;;;;;;;4504930;28;20529;-62
2022/03/06 08:55:36;;;;;;;7.63;5.67;;;;;;;;;;4506968;28;20068;-61
2022/03/06 08:57:47;;;;;;;8.40;5.30;;;;;;;;;;4506274;28;20030;-62
2022/03/06 08:59:57;;;;;;;6.67;4.80;;;;;;;;;;4506926;28;25949;-62
2022/03/06 09:02:07;;;;;;;6.30;4.53;;;;;;;;;;4506266;28;20406;-62
2022/03/06 09:04:18;;;;;;;6.23;4.60;;;;;;;;;;4507734;28;20037;-61
2022/03/06 09:06:28;;;;;;;6.57;4.70;;;;;;;;;;4506806;28;20030;-62
2022/03/06 09:08:39;;;;;;;5.97;4.50;;;;;;;;;;4506107;28;20038;-62
2022/03/06 09:10:49;;;;;;;7.33;4.63;;;;;;;;;;4508436;28;20022;-61
2022/03/06 09:13:00;;;;;;;6.07;4.60;;;;;;;;;;4506192;28;20056;-62
2022/03/06 09:15:11;;;;;;;6.00;4.30;;;;;;;;;;4506069;28;20104;-62
2022/03/06 09:17:22;;;;;;;5.20;4.20;;;;;;;;;;4507793;28;20542;-62
2022/03/06 09:19:32;;;;;;;5.87;4.43;;;;;;;;;;4508004;28;20053;-62
2022/03/06 09:21:43;;;;;;;6.07;4.40;;;;;;;;;;4498950;28;20098;-62
2022/03/06 09:23:54;;;;;;;5.45;4.25;;;;;;;;;;4508517;28;20026;-62
2022/03/06 09:26:04;;;;;;;6.43;4.70;;;;;;;;;;4506042;28;20364;-62
2022/03/06 09:28:15;;;;;;;6.20;4.80;;;;;;;;;;4506088;28;20029;-62
2022/03/06 09:30:25;;;;;;;6.00;4.60;;;;;;;;;;4506953;28;20518;-62
2022/03/06 09:32:36;;;;;;;5.87;4.77;;;;;;;;;;4505969;28;20018;-62
2022/03/06 09:34:46;;;;;;;6.27;4.77;;;;;;;;;;4507181;28;20022;-61
2022/03/06 09:36:57;;;;;;;6.07;4.87;;;;;;;;;;4508359;28;20026;-61
2022/03/06 09:39:07;;;;;;;6.37;5.07;;;;;;;;;;4508452;28;20517;-62
2022/03/06 09:41:22;;;;;;;6.47;5.07;;;;;;;;;;4507899;28;20029;-61
2022/03/06 09:43:33;;;;;;;6.85;5.13;;;;;;;;;;4509639;28;20080;-62
2022/03/06 09:45:45;;;;;;;6.38;4.68;;;;;;;;;;4491993;28;20983;-61
2022/03/06 09:47:58;;;;;;;6.28;5.13;;;;;;;;;;4505335;28;20033;-61
2022/03/06 09:50:10;;;;;;;7.20;5.15;;;;;;;;;;4496386;28;20066;-61
2022/03/06 09:52:21;;;;;;;6.88;5.47;;;;;;;;;;4505898;28;21464;-62
2022/03/06 09:54:31;;;;;;;6.63;4.97;;;;;;;;;;4506229;28;24234;-61
2022/03/06 09:56:42;;;;;;;6.50;4.70;;;;;;;;;;4492841;28;20030;-62
2022/03/06 09:58:53;;;;;;;7.03;5.40;;;;;;;;;;4484851;28;20081;-61
2022/03/06 10:01:03;;;;;;;6.63;5.20;;;;;;;;;;4499816;28;20106;-61
2022/03/06 10:03:19;;;;;;;6.80;5.20;;;;;;;;;;4511185;28;20128;-62
2022/03/06 10:05:39;;;;;;;5.60;4.90;;;;;;;;;;4508848;28;20052;-61
2022/03/06 10:07:49;;;;;;;7.22;5.20;;;;;;;;;;4502589;28;20237;-61
2022/03/06 10:10:00;;;;;;;6.93;5.37;;;;;;;;;;4494127;28;20018;-60
2022/03/06 10:12:31;;;;;;;6.53;5.30;;;;;;;;;;4495351;28;20062;-61
2022/03/06 10:14:42;;;;;;;7.43;5.40;;;;;;;;;;4524299;28;20021;-61
2022/03/06 10:17:17;;;;;;;5.90;5.03;;;;;;;;;;4494043;28;20060;-62
2022/03/06 10:19:48;;;;;;;6.15;4.90;;;;;;;;;;4492116;28;20114;-61
2022/03/06 10:22:10;;;;;;;7.10;5.32;;;;;;;;;;4509336;28;20525;-61
2022/03/06 10:24:24;;;;;;;6.72;5.15;;;;;;;;;;4501245;28;20096;-61
2022/03/06 10:26:36;;;;;;;6.80;4.85;;;;;;;;;;4509940;28;20033;-61
2022/03/06 10:28:48;;;;;;;6.18;5.18;;;;;;;;;;4482402;28;20585;-63
2022/03/06 10:31:05;;;;;;;5.80;4.75;;;;;;;;;;4509458;28;20030;-62
2022/03/06 10:33:21;;;;;;;5.32;4.30;;;;;;;;;;4492483;28;20030;-61
2022/03/06 10:35:36;;;;;;;6.78;4.72;;;;;;;;;;4501674;28;20025;-61
2022/03/06 10:37:47;;;;;;;5.53;4.30;;;;;;;;;;4491036;28;20034;-62
2022/03/06 10:39:57;;;;;;;4.83;4.13;;;;;;;;;;4509811;28;20091;-61
2022/03/06 10:42:09;;;;;;;4.70;4.20;;;;;;;;;;4509033;28;20058;-62
2022/03/06 10:44:22;;;;;;;5.07;4.43;;;;;;;;;;4490517;28;20038;-61
2022/03/06 10:46:34;;;;;;;4.75;3.95;;;;;;;;;;4484920;28;20018;-61
2022/03/06 10:49:16;;;;;;;5.07;4.47;;;;;;;;;;4508898;28;20029;-61
2022/03/06 10:51:28;;;;;;;4.85;4.28;;;;;;;;;;4495843;28;20348;-62
2022/03/06 10:53:39;;;;;;;6.00;4.38;;;;;;;;;;4509842;28;20083;-62
2022/03/06 10:55:50;;;;;;;5.83;4.63;;;;;;;;;;4510061;28;20061;-61
2022/03/06 10:58:02;;;;;;;5.65;4.45;;;;;;;;;;4499209;28;20053;-62
2022/03/06 11:00:13;;;;;;;4.93;4.10;;;;;;;;;;4497999;28;20092;-62
2022/03/06 11:02:25;;;;;;;5.10;4.40;;;;;;;;;;4492625;28;20547;-62
2022/03/06 11:04:35;;;;;;;;;;;;;;;;;;4494524;28;20037;-61
2022/03/06 11:06:47;;;;;;;5.70;4.40;;;;;;;;;;4524014;28;19979;-62
2022/03/06 11:08:58;;;;;;;6.25;4.75;;;;;;;;;;4492981;28;20026;-61
2022/03/06 11:11:09;;;;;;;6.77;4.47;;;;;;;;;;4490784;28;20790;-62
2022/03/06 11:13:19;;;;;;;6.87;4.60;;;;;;;;;;4509693;28;20034;-62
2022/03/06 11:15:29;;;;;;;6.73;4.80;;;;;;;;;;4508995;28;20025;-62
2022/03/06 11:17:41;;;;;;;5.87;4.33;;;;;;;;;;4493619;28;20061;-62
2022/03/06 11:19:51;;;;;;;6.10;4.32;;;;;;;;;;4525934;28;20764;-62
2022/03/06 11:22:15;;;;;;;4.77;3.97;;;;;;;;;;4509257;28;20029;-61
2022/03/06 11:24:28;;;;;;;5.55;3.90;;;;;;;;;;4506801;28;20668;-62
2022/03/06 11:27:02;;;;;;;4.63;3.63;;;;;;;;;;4508069;28;20881;-62
2022/03/06 11:29:27;;;;;;;5.15;3.88;;;;;;;;;;4510268;28;20038;-62
2022/03/06 11:31:45;;;;;;;3.70;3.22;;;;;;;;;;4509305;28;20048;-62
2022/03/06 11:34:03;;;;;;;5.72;3.92;;;;;;;;;;4498801;28;20201;-61
2022/03/06 11:36:20;;;;;;;4.13;3.58;;;;;;;;;;4509290;28;20030;-61
2022/03/06 11:38:40;;;;;;;5.55;3.92;;;;;;;;;;4510386;28;20691;-61
2022/03/06 11:40:52;;;;;;;5.75;3.80;;;;;;;;;;4515607;28;20040;-61
2022/03/06 11:43:02;;;;;;;4.50;3.63;;;;;;;;;;4500036;28;20033;-61
2022/03/06 11:45:44;;;;;;;5.00;4.03;;;;;;;;;;4508730;28;20406;-60
2022/03/06 11:47:55;;;;;;;5.07;3.78;;;;;;;;;;4509164;28;21124;-61
2022/03/06 11:50:07;;;;;;;5.37;3.67;;;;;;;;;;4509953;28;20026;-61
2022/03/06 11:52:29;;;;;;;4.45;3.30;;;;;;;;;;4509808;28;20053;-61
2022/03/06 11:54:42;;;;;;;5.43;3.38;;;;;;;;;;4491354;28;20083;-61
2022/03/06 11:56:54;;;;;;;4.57;3.30;;;;;;;;;;4508752;28;20037;-61
2022/03/06 11:59:05;;;;;;;3.95;3.13;;;;;;;;;;4510156;28;20049;-61
2022/03/06 12:01:39;;;;;;;4.47;3.13;;;;;;;;;;4525614;28;20037;-61
2022/03/06 12:03:49;;;;;;;4.00;3.00;;;;;;;;;;4492187;28;20543;-61
2022/03/06 12:06:00;;;;;;;3.90;2.87;;;;;;;;;;4510158;28;20060;-61
2022/03/06 12:08:11;;;;;;;3.53;2.90;;;;;;;;;;4511539;28;24289;-61
2022/03/06 12:10:23;;;;;;;4.60;3.22;;;;;;;;;;4483098;28;20098;-61
2022/03/06 12:12:35;;;;;;;3.78;2.88;;;;;;;;;;4491112;28;20030;-61
2022/03/06 12:14:49;;;;;;;3.20;2.67;;;;;;;;;;4508246;28;20080;-61
2022/03/06 12:17:03;;;;;;;3.85;3.28;;;;;;;;;;4494100;28;20767;-60
2022/03/06 12:19:13;;;;;;;3.97;2.80;;;;;;;;;;4509508;28;20042;-62
2022/03/06 12:21:24;;;;;;;4.10;3.00;;;;;;;;;;4509411;28;20482;-61
2022/03/06 12:23:34;;;;;;;4.73;3.10;;;;;;;;;;4474489;28;39519;-61
2022/03/06 12:25:50;;;;;;;5.50;3.53;;;;;;;;;;4509718;28;20034;-61
2022/03/06 12:28:00;;;;;;;4.57;3.15;;;;;;;;;;4509487;28;20033;-61
2022/03/06 12:30:13;;;;;;;4.80;3.00;;;;;;;;;;4498453;28;20406;-61
2022/03/06 12:32:29;;;;;;;5.03;3.30;;;;;;;;;;4525154;28;20036;-61
2022/03/06 12:34:41;;;;;;;3.75;2.88;;;;;;;;;;4510162;28;20159;-61
2022/03/06 12:36:53;;;;;;;4.00;3.27;;;;;;;;;;4509849;28;20161;-61
2022/03/06 12:39:04;;;;;;;4.38;3.28;;;;;;;;;;4524069;28;20610;-61
2022/03/06 12:41:15;;;;;;;;;;;;;;;;;;4493326;28;20154;-61
2022/03/06 12:43:26;;;;;;;4.53;3.20;;;;;;;;;;4510230;28;19917;-61
2022/03/06 12:45:37;;;;;;;5.07;2.85;;;;;;;;;;4524250;28;20037;-61
2022/03/06 12:47:47;;;;;;;4.77;2.97;;;;;;;;;;4508821;28;20401;-61
2022/03/06 12:49:59;;;;;;;4.17;2.73;;;;;;;;;;4523089;28;33860;-61
2022/03/06 12:52:10;;;;;;;4.38;2.97;;;;;;;;;;4509048;28;20604;-60
2022/03/06 12:54:22;;;;;;;4.50;3.23;;;;;;;;;;4510059;28;20112;-61
2022/03/06 12:56:38;;;;;;;5.60;3.47;;;;;;;;;;4491889;28;20038;-61
2022/03/06 12:58:49;;;;;;;4.85;3.05;;;;;;;;;;4492583;28;20042;-61
2022/03/06 13:01:06;;;;;;;3.50;2.47;;;;;;;;;;4510281;28;20038;-61
2022/03/06 13:03:17;;;;;;;4.18;2.70;;;;;;;;;;4508246;28;20061;-61
2022/03/06 13:05:30;;;;;;;3.63;2.63;;;;;;;;;;4510695;28;20108;-61
2022/03/06 13:07:40;;;;;;;3.38;2.60;;;;;;;;;;4499271;28;20034;-61
2022/03/06 13:10:02;;;;;;;3.83;2.60;;;;;;;;;;4506337;28;45191;-60
2022/03/06 13:12:12;;;;;;;;;;;;;;;;;;4511477;28;20038;-61